sensor_id;sensor_type;location;lat;lon;timestamp;temperature;humidity
14924;DHT22;7554;43.600;1.480;2023-06-05T00:00:07;19.00;1.00
14924;DHT22;7554;43.600;1.480;2023-06-05T00:02:35;19.00;1.00
14924;DHT22;7554;43.600;1.480;2023-06-05T00:05:03;19.00;1.00
14924;DHT22;7554;43.600;1.480;2023-06-05T00:07:34;19.00;1.00
14924;DHT22;7554;43.600;1.480;2023-06-05T00:10:05;18.90;1.00
14924;DHT22;7554;43.600;1.480;2023-06-05T00:12:34;18.80;1.00
14924;DHT22;7554;43.600;1.480;2023-06-05T00:15:02;18.90;1.00
14924;DHT22;7554;43.600;1.480;2023-06-05T00:17:30;18.80;1.00
14924;DHT22;7554;43.600;1.480;2023-06-05T00:19:58;18.90;1.00
14924;DHT22;7554;43.600;1.480;2023-06-05T00:22:26;18.90;1.00
14924;DHT22;7554;43.600;1.480;2023-06-05T00:24:53;18.90;1.00
14924;DHT22;7554;43.600;1.480;2023-06-05T00:27:22;18.70;1.00
14924;DHT22;7554;43.600;1.480;2023-06-05T00:29:50;18.60;1.00
14924;DHT22;7554;43.600;1.480;2023-06-05T00:32:18;18.70;1.00
14924;DHT22;7554;43.600;1.480;2023-06-05T00:34:45;18.70;1.00
14924;DHT22;7554;43.600;1.480;2023-06-05T00:37:15;18.80;1.00
14924;DHT22;7554;43.600;1.480;2023-06-05T00:39:43;18.60;1.00
14924;DHT22;7554;43.600;1.480;2023-06-05T00:42:10;18.70;1.00
14924;DHT22;7554;43.600;1.480;2023-06-05T00:44:39;18.80;1.00
14924;DHT22;7554;43.600;1.480;2023-06-05T00:47:06;18.70;1.00
14924;DHT22;7554;43.600;1.480;2023-06-05T00:49:34;18.70;1.00
14924;DHT22;7554;43.600;1.480;2023-06-05T00:52:01;18.70;1.00
14924;DHT22;7554;43.600;1.480;2023-06-05T00:54:29;18.70;1.00
14924;DHT22;7554;43.600;1.480;2023-06-05T00:56:56;18.70;1.00
14924;DHT22;7554;43.600;1.480;2023-06-05T00:59:24;18.70;1.00
14924;DHT22;7554;43.600;1.480;2023-06-05T01:01:53;18.70;1.00
14924;DHT22;7554;43.600;1.480;2023-06-05T01:04:21;18.70;1.00
14924;DHT22;7554;43.600;1.480;2023-06-05T01:06:50;18.70;1.00
14924;DHT22;7554;43.600;1.480;2023-06-05T01:09:19;18.70;1.00
14924;DHT22;7554;43.600;1.480;2023-06-05T01:11:52;18.70;1.00
14924;DHT22;7554;43.600;1.480;2023-06-05T01:14:22;18.60;1.00
14924;DHT22;7554;43.600;1.480;2023-06-05T01:16:52;18.60;1.00
14924;DHT22;7554;43.600;1.480;2023-06-05T01:19:21;18.60;1.00
14924;DHT22;7554;43.600;1.480;2023-06-05T01:21:50;18.60;1.00
14924;DHT22;7554;43.600;1.480;2023-06-05T01:24:19;18.60;1.00
14924;DHT22;7554;43.600;1.480;2023-06-05T01:26:55;18.60;1.00
14924;DHT22;7554;43.600;1.480;2023-06-05T01:29:31;18.50;1.00
14924;DHT22;7554;43.600;1.480;2023-06-05T01:32:04;18.40;1.00
14924;DHT22;7554;43.600;1.480;2023-06-05T01:34:33;18.40;1.00
14924;DHT22;7554;43.600;1.480;2023-06-05T01:37:04;18.40;1.00
14924;DHT22;7554;43.600;1.480;2023-06-05T01:39:36;18.40;1.00
14924;DHT22;7554;43.600;1.480;2023-06-05T01:42:05;18.20;1.00
14924;DHT22;7554;43.600;1.480;2023-06-05T01:44:33;18.30;1.00
14924;DHT22;7554;43.600;1.480;2023-06-05T01:47:01;18.20;1.00
14924;DHT22;7554;43.600;1.480;2023-06-05T01:49:29;18.00;1.00
14924;DHT22;7554;43.600;1.480;2023-06-05T01:51:56;17.90;1.00
14924;DHT22;7554;43.600;1.480;2023-06-05T01:54:24;17.90;1.00
14924;DHT22;7554;43.600;1.480;2023-06-05T01:56:53;18.00;1.00
14924;DHT22;7554;43.600;1.480;2023-06-05T01:59:21;18.00;1.00
14924;DHT22;7554;43.600;1.480;2023-06-05T02:01:48;17.90;1.00
14924;DHT22;7554;43.600;1.480;2023-06-05T02:04:16;18.00;1.00
14924;DHT22;7554;43.600;1.480;2023-06-05T02:06:44;18.00;1.00
14924;DHT22;7554;43.600;1.480;2023-06-05T02:09:12;18.00;1.00
14924;DHT22;7554;43.600;1.480;2023-06-05T02:11:40;18.00;1.00
14924;DHT22;7554;43.600;1.480;2023-06-05T02:14:12;18.00;1.00
14924;DHT22;7554;43.600;1.480;2023-06-05T02:16:41;17.90;1.00
14924;DHT22;7554;43.600;1.480;2023-06-05T02:19:09;17.90;1.00
14924;DHT22;7554;43.600;1.480;2023-06-05T02:21:36;17.90;1.00
14924;DHT22;7554;43.600;1.480;2023-06-05T02:24:04;17.90;1.00
14924;DHT22;7554;43.600;1.480;2023-06-05T02:26:32;17.80;1.00
14924;DHT22;7554;43.600;1.480;2023-06-05T02:29:00;17.80;1.00
14924;DHT22;7554;43.600;1.480;2023-06-05T02:31:28;17.70;1.00
14924;DHT22;7554;43.600;1.480;2023-06-05T02:33:56;17.70;1.00
14924;DHT22;7554;43.600;1.480;2023-06-05T02:36:24;17.70;1.00
14924;DHT22;7554;43.600;1.480;2023-06-05T02:38:52;17.60;1.00
14924;DHT22;7554;43.600;1.480;2023-06-05T02:41:20;17.60;1.00
14924;DHT22;7554;43.600;1.480;2023-06-05T02:43:48;17.60;1.00
14924;DHT22;7554;43.600;1.480;2023-06-05T02:46:15;17.60;1.00
14924;DHT22;7554;43.600;1.480;2023-06-05T02:48:44;17.40;1.00
14924;DHT22;7554;43.600;1.480;2023-06-05T02:51:11;17.50;1.00
14924;DHT22;7554;43.600;1.480;2023-06-05T02:53:38;17.50;1.00
14924;DHT22;7554;43.600;1.480;2023-06-05T02:56:06;17.40;1.00
14924;DHT22;7554;43.600;1.480;2023-06-05T02:58:33;17.40;1.00
14924;DHT22;7554;43.600;1.480;2023-06-05T03:01:01;17.40;1.00
14924;DHT22;7554;43.600;1.480;2023-06-05T03:03:30;17.40;1.00
14924;DHT22;7554;43.600;1.480;2023-06-05T03:06:00;17.40;1.00
14924;DHT22;7554;43.600;1.480;2023-06-05T03:08:31;17.40;1.00
14924;DHT22;7554;43.600;1.480;2023-06-05T03:10:59;17.40;1.00
14924;DHT22;7554;43.600;1.480;2023-06-05T03:13:27;17.40;1.00
14924;DHT22;7554;43.600;1.480;2023-06-05T03:15:55;17.40;1.00
14924;DHT22;7554;43.600;1.480;2023-06-05T03:18:23;17.30;1.00
14924;DHT22;7554;43.600;1.480;2023-06-05T03:20:51;17.30;1.00
14924;DHT22;7554;43.600;1.480;2023-06-05T03:23:23;17.30;1.00
14924;DHT22;7554;43.600;1.480;2023-06-05T03:25:50;17.30;1.00
14924;DHT22;7554;43.600;1.480;2023-06-05T03:28:18;17.20;1.00
14924;DHT22;7554;43.600;1.480;2023-06-05T03:30:46;17.20;1.00
14924;DHT22;7554;43.600;1.480;2023-06-05T03:33:14;17.20;1.00
14924;DHT22;7554;43.600;1.480;2023-06-05T03:35:41;17.20;1.00
14924;DHT22;7554;43.600;1.480;2023-06-05T03:38:11;17.20;1.00
14924;DHT22;7554;43.600;1.480;2023-06-05T03:40:40;17.10;1.00
14924;DHT22;7554;43.600;1.480;2023-06-05T03:43:07;17.10;1.00
14924;DHT22;7554;43.600;1.480;2023-06-05T03:45:36;17.00;1.00
14924;DHT22;7554;43.600;1.480;2023-06-05T03:48:04;17.00;1.00
14924;DHT22;7554;43.600;1.480;2023-06-05T03:50:32;17.00;1.00
14924;DHT22;7554;43.600;1.480;2023-06-05T03:53:02;16.90;1.00
14924;DHT22;7554;43.600;1.480;2023-06-05T03:55:30;17.00;1.00
14924;DHT22;7554;43.600;1.480;2023-06-05T03:58:10;17.00;1.00
14924;DHT22;7554;43.600;1.480;2023-06-05T04:00:40;17.00;1.00
14924;DHT22;7554;43.600;1.480;2023-06-05T04:03:08;17.00;1.00
14924;DHT22;7554;43.600;1.480;2023-06-05T04:05:37;16.90;1.00
14924;DHT22;7554;43.600;1.480;2023-06-05T04:08:04;16.90;1.00
14924;DHT22;7554;43.600;1.480;2023-06-05T04:10:32;16.90;1.00
14924;DHT22;7554;43.600;1.480;2023-06-05T04:12:59;17.00;1.00
14924;DHT22;7554;43.600;1.480;2023-06-05T04:15:28;17.00;1.00
14924;DHT22;7554;43.600;1.480;2023-06-05T04:17:55;17.10;1.00
14924;DHT22;7554;43.600;1.480;2023-06-05T04:20:23;17.10;1.00
14924;DHT22;7554;43.600;1.480;2023-06-05T04:22:50;17.10;1.00
14924;DHT22;7554;43.600;1.480;2023-06-05T04:25:18;17.20;1.00
14924;DHT22;7554;43.600;1.480;2023-06-05T04:27:48;17.30;1.00
14924;DHT22;7554;43.600;1.480;2023-06-05T04:30:16;17.50;1.00
14924;DHT22;7554;43.600;1.480;2023-06-05T04:32:44;17.70;1.00
14924;DHT22;7554;43.600;1.480;2023-06-05T04:35:20;17.70;1.00
14924;DHT22;7554;43.600;1.480;2023-06-05T04:37:48;17.80;1.00
14924;DHT22;7554;43.600;1.480;2023-06-05T04:40:16;17.80;1.00
14924;DHT22;7554;43.600;1.480;2023-06-05T04:42:46;17.90;1.00
14924;DHT22;7554;43.600;1.480;2023-06-05T04:45:13;18.20;1.00
14924;DHT22;7554;43.600;1.480;2023-06-05T04:47:43;19.00;1.00
14924;DHT22;7554;43.600;1.480;2023-06-05T04:50:22;19.90;1.00
14924;DHT22;7554;43.600;1.480;2023-06-05T04:52:51;20.50;1.00
14924;DHT22;7554;43.600;1.480;2023-06-05T04:55:19;21.00;1.00
14924;DHT22;7554;43.600;1.480;2023-06-05T04:57:46;21.00;1.00
14924;DHT22;7554;43.600;1.480;2023-06-05T05:00:14;21.40;1.00
14924;DHT22;7554;43.600;1.480;2023-06-05T05:02:43;22.00;1.00
14924;DHT22;7554;43.600;1.480;2023-06-05T05:05:11;22.60;1.00
14924;DHT22;7554;43.600;1.480;2023-06-05T05:07:40;23.00;1.00
14924;DHT22;7554;43.600;1.480;2023-06-05T05:10:08;23.10;1.00
14924;DHT22;7554;43.600;1.480;2023-06-05T05:12:36;23.70;1.00
14924;DHT22;7554;43.600;1.480;2023-06-05T05:15:04;24.40;1.00
14924;DHT22;7554;43.600;1.480;2023-06-05T05:17:31;24.90;1.00
14924;DHT22;7554;43.600;1.480;2023-06-05T05:20:00;25.00;1.00
14924;DHT22;7554;43.600;1.480;2023-06-05T05:22:29;25.10;1.00
14924;DHT22;7554;43.600;1.480;2023-06-05T05:24:58;24.70;1.00
14924;DHT22;7554;43.600;1.480;2023-06-05T05:27:25;25.20;1.00
14924;DHT22;7554;43.600;1.480;2023-06-05T05:29:52;25.90;1.00
14924;DHT22;7554;43.600;1.480;2023-06-05T05:32:19;25.70;1.00
14924;DHT22;7554;43.600;1.480;2023-06-05T05:34:47;24.20;1.00
14924;DHT22;7554;43.600;1.480;2023-06-05T05:37:18;23.10;1.00
14924;DHT22;7554;43.600;1.480;2023-06-05T05:39:45;23.20;1.00
14924;DHT22;7554;43.600;1.480;2023-06-05T05:42:12;23.90;1.00
14924;DHT22;7554;43.600;1.480;2023-06-05T05:44:39;23.10;1.00
14924;DHT22;7554;43.600;1.480;2023-06-05T05:47:08;22.40;1.00
14924;DHT22;7554;43.600;1.480;2023-06-05T05:49:36;23.10;1.00
14924;DHT22;7554;43.600;1.480;2023-06-05T05:52:04;23.80;1.00
14924;DHT22;7554;43.600;1.480;2023-06-05T05:54:32;23.40;1.00
14924;DHT22;7554;43.600;1.480;2023-06-05T05:57:00;23.60;1.00
14924;DHT22;7554;43.600;1.480;2023-06-05T05:59:27;24.50;1.00
14924;DHT22;7554;43.600;1.480;2023-06-05T06:01:54;25.90;1.00
14924;DHT22;7554;43.600;1.480;2023-06-05T06:04:24;26.20;1.00
14924;DHT22;7554;43.600;1.480;2023-06-05T06:06:52;24.80;1.00
14924;DHT22;7554;43.600;1.480;2023-06-05T06:09:22;24.10;1.00
14924;DHT22;7554;43.600;1.480;2023-06-05T06:11:52;23.90;1.00
14924;DHT22;7554;43.600;1.480;2023-06-05T06:14:21;23.70;1.00
14924;DHT22;7554;43.600;1.480;2023-06-05T06:16:48;23.00;1.00
14924;DHT22;7554;43.600;1.480;2023-06-05T06:19:16;22.80;1.00
14924;DHT22;7554;43.600;1.480;2023-06-05T06:21:48;22.70;1.00
14924;DHT22;7554;43.600;1.480;2023-06-05T06:24:16;22.60;1.00
14924;DHT22;7554;43.600;1.480;2023-06-05T06:26:45;24.50;1.00
14924;DHT22;7554;43.600;1.480;2023-06-05T06:29:18;27.00;1.00
14924;DHT22;7554;43.600;1.480;2023-06-05T06:31:46;28.40;1.00
14924;DHT22;7554;43.600;1.480;2023-06-05T06:34:13;29.90;1.00
14924;DHT22;7554;43.600;1.480;2023-06-05T06:36:40;30.40;1.00
14924;DHT22;7554;43.600;1.480;2023-06-05T06:39:10;29.40;1.00
14924;DHT22;7554;43.600;1.480;2023-06-05T06:41:39;29.30;1.00
14924;DHT22;7554;43.600;1.480;2023-06-05T06:44:06;30.10;1.00
14924;DHT22;7554;43.600;1.480;2023-06-05T06:46:35;29.90;1.00
14924;DHT22;7554;43.600;1.480;2023-06-05T06:49:02;29.70;1.00
14924;DHT22;7554;43.600;1.480;2023-06-05T06:51:30;30.50;1.00
14924;DHT22;7554;43.600;1.480;2023-06-05T06:53:58;31.60;1.00
14924;DHT22;7554;43.600;1.480;2023-06-05T06:56:25;33.00;1.00
14924;DHT22;7554;43.600;1.480;2023-06-05T06:58:53;32.60;1.00
14924;DHT22;7554;43.600;1.480;2023-06-05T07:01:21;34.30;1.00
14924;DHT22;7554;43.600;1.480;2023-06-05T07:03:51;34.60;1.00
14924;DHT22;7554;43.600;1.480;2023-06-05T07:06:18;33.00;1.00
14924;DHT22;7554;43.600;1.480;2023-06-05T07:08:48;31.30;1.00
14924;DHT22;7554;43.600;1.480;2023-06-05T07:11:16;32.30;1.00
14924;DHT22;7554;43.600;1.480;2023-06-05T07:13:43;32.60;1.00
14924;DHT22;7554;43.600;1.480;2023-06-05T07:16:10;33.50;1.00
14924;DHT22;7554;43.600;1.480;2023-06-05T07:18:38;31.80;1.00
14924;DHT22;7554;43.600;1.480;2023-06-05T07:21:07;32.60;1.00
14924;DHT22;7554;43.600;1.480;2023-06-05T07:23:35;34.60;1.00
14924;DHT22;7554;43.600;1.480;2023-06-05T07:26:02;34.40;1.00
14924;DHT22;7554;43.600;1.480;2023-06-05T07:28:30;36.10;1.00
14924;DHT22;7554;43.600;1.480;2023-06-05T07:30:57;38.10;1.00
14924;DHT22;7554;43.600;1.480;2023-06-05T07:33:29;37.30;1.00
14924;DHT22;7554;43.600;1.480;2023-06-05T07:35:58;37.10;1.00
14924;DHT22;7554;43.600;1.480;2023-06-05T07:38:26;36.70;1.00
14924;DHT22;7554;43.600;1.480;2023-06-05T07:40:55;37.40;1.00
14924;DHT22;7554;43.600;1.480;2023-06-05T07:43:24;37.60;1.00
14924;DHT22;7554;43.600;1.480;2023-06-05T07:45:51;38.00;1.00
14924;DHT22;7554;43.600;1.480;2023-06-05T07:48:18;38.70;1.00
14924;DHT22;7554;43.600;1.480;2023-06-05T07:50:46;39.70;1.00
14924;DHT22;7554;43.600;1.480;2023-06-05T07:53:13;40.00;1.00
14924;DHT22;7554;43.600;1.480;2023-06-05T07:55:42;39.90;1.00
14924;DHT22;7554;43.600;1.480;2023-06-05T07:58:09;40.20;1.00
14924;DHT22;7554;43.600;1.480;2023-06-05T08:00:36;39.80;1.00
14924;DHT22;7554;43.600;1.480;2023-06-05T08:03:04;40.40;1.00
14924;DHT22;7554;43.600;1.480;2023-06-05T08:05:31;40.60;1.00
14924;DHT22;7554;43.600;1.480;2023-06-05T08:08:00;42.00;1.00
14924;DHT22;7554;43.600;1.480;2023-06-05T08:10:28;42.20;1.00
14924;DHT22;7554;43.600;1.480;2023-06-05T08:12:57;42.20;1.00
14924;DHT22;7554;43.600;1.480;2023-06-05T08:15:24;39.10;1.00
14924;DHT22;7554;43.600;1.480;2023-06-05T08:17:51;40.40;1.00
14924;DHT22;7554;43.600;1.480;2023-06-05T08:20:19;39.40;1.00
14924;DHT22;7554;43.600;1.480;2023-06-05T08:22:46;40.50;1.00
14924;DHT22;7554;43.600;1.480;2023-06-05T08:25:15;41.00;1.00
14924;DHT22;7554;43.600;1.480;2023-06-05T08:27:42;40.40;1.00
14924;DHT22;7554;43.600;1.480;2023-06-05T08:30:11;41.10;1.00
14924;DHT22;7554;43.600;1.480;2023-06-05T08:32:39;40.20;1.00
14924;DHT22;7554;43.600;1.480;2023-06-05T08:35:07;40.30;1.00
14924;DHT22;7554;43.600;1.480;2023-06-05T08:37:35;41.00;1.00
14924;DHT22;7554;43.600;1.480;2023-06-05T08:40:03;41.20;1.00
14924;DHT22;7554;43.600;1.480;2023-06-05T08:42:34;41.40;1.00
14924;DHT22;7554;43.600;1.480;2023-06-05T08:45:01;41.70;1.00
14924;DHT22;7554;43.600;1.480;2023-06-05T08:47:30;42.10;1.00
14924;DHT22;7554;43.600;1.480;2023-06-05T08:50:00;41.80;1.00
14924;DHT22;7554;43.600;1.480;2023-06-05T08:52:29;41.20;1.00
14924;DHT22;7554;43.600;1.480;2023-06-05T08:54:59;40.90;1.00
14924;DHT22;7554;43.600;1.480;2023-06-05T08:57:27;42.90;1.00
14924;DHT22;7554;43.600;1.480;2023-06-05T08:59:55;43.50;1.00
14924;DHT22;7554;43.600;1.480;2023-06-05T09:02:22;44.10;1.00
14924;DHT22;7554;43.600;1.480;2023-06-05T09:04:51;44.50;1.00
14924;DHT22;7554;43.600;1.480;2023-06-05T09:07:18;43.10;1.00
14924;DHT22;7554;43.600;1.480;2023-06-05T09:09:45;44.00;1.00
14924;DHT22;7554;43.600;1.480;2023-06-05T09:12:13;43.80;1.00
14924;DHT22;7554;43.600;1.480;2023-06-05T09:14:40;42.50;1.00
14924;DHT22;7554;43.600;1.480;2023-06-05T09:17:13;43.30;1.00
14924;DHT22;7554;43.600;1.480;2023-06-05T09:19:41;42.90;1.00
14924;DHT22;7554;43.600;1.480;2023-06-05T09:22:12;41.30;1.00
14924;DHT22;7554;43.600;1.480;2023-06-05T09:24:42;40.70;1.00
14924;DHT22;7554;43.600;1.480;2023-06-05T09:27:10;41.00;1.00
14924;DHT22;7554;43.600;1.480;2023-06-05T09:29:39;40.80;1.00
14924;DHT22;7554;43.600;1.480;2023-06-05T09:32:07;40.90;1.00
14924;DHT22;7554;43.600;1.480;2023-06-05T09:34:36;41.60;1.00
14924;DHT22;7554;43.600;1.480;2023-06-05T09:37:04;42.00;1.00
14924;DHT22;7554;43.600;1.480;2023-06-05T09:39:35;41.50;1.00
14924;DHT22;7554;43.600;1.480;2023-06-05T09:42:03;40.50;1.00
14924;DHT22;7554;43.600;1.480;2023-06-05T09:44:31;41.90;1.00
14924;DHT22;7554;43.600;1.480;2023-06-05T09:47:00;41.70;1.00
14924;DHT22;7554;43.600;1.480;2023-06-05T09:49:29;42.20;1.00
14924;DHT22;7554;43.600;1.480;2023-06-05T09:51:58;42.40;1.00
14924;DHT22;7554;43.600;1.480;2023-06-05T09:54:27;42.00;1.00
14924;DHT22;7554;43.600;1.480;2023-06-05T09:56:59;40.30;1.00
14924;DHT22;7554;43.600;1.480;2023-06-05T09:59:30;36.80;1.00
14924;DHT22;7554;43.600;1.480;2023-06-05T10:02:01;34.80;1.00
14924;DHT22;7554;43.600;1.480;2023-06-05T10:04:32;32.80;1.00
14924;DHT22;7554;43.600;1.480;2023-06-05T10:07:01;29.70;1.00
14924;DHT22;7554;43.600;1.480;2023-06-05T10:09:30;29.90;1.00
14924;DHT22;7554;43.600;1.480;2023-06-05T10:11:59;30.20;1.00
14924;DHT22;7554;43.600;1.480;2023-06-05T10:14:27;29.60;1.00
14924;DHT22;7554;43.600;1.480;2023-06-05T10:16:54;30.30;1.00
14924;DHT22;7554;43.600;1.480;2023-06-05T10:19:22;30.80;1.00
14924;DHT22;7554;43.600;1.480;2023-06-05T10:21:50;30.90;1.00
14924;DHT22;7554;43.600;1.480;2023-06-05T10:24:22;30.60;1.00
14924;DHT22;7554;43.600;1.480;2023-06-05T10:27:25;30.50;1.00
14924;DHT22;7554;43.600;1.480;2023-06-05T10:33:28;30.40;1.00
14924;DHT22;7554;43.600;1.480;2023-06-05T10:36:06;29.90;1.00
14924;DHT22;7554;43.600;1.480;2023-06-05T10:38:38;28.90;1.00
14924;DHT22;7554;43.600;1.480;2023-06-05T10:41:06;29.40;1.00
14924;DHT22;7554;43.600;1.480;2023-06-05T10:43:36;29.20;1.00
14924;DHT22;7554;43.600;1.480;2023-06-05T10:46:29;29.30;1.00
14924;DHT22;7554;43.600;1.480;2023-06-05T10:49:10;28.80;1.00
14924;DHT22;7554;43.600;1.480;2023-06-05T10:51:39;28.80;1.00
14924;DHT22;7554;43.600;1.480;2023-06-05T10:54:10;28.60;1.00
14924;DHT22;7554;43.600;1.480;2023-06-05T10:56:53;29.00;1.00
14924;DHT22;7554;43.600;1.480;2023-06-05T10:59:24;29.80;1.00
14924;DHT22;7554;43.600;1.480;2023-06-05T11:02:22;30.00;1.00
14924;DHT22;7554;43.600;1.480;2023-06-05T11:05:07;29.50;1.00
14924;DHT22;7554;43.600;1.480;2023-06-05T11:07:36;29.20;1.00
14924;DHT22;7554;43.600;1.480;2023-06-05T11:10:10;28.80;1.00
14924;DHT22;7554;43.600;1.480;2023-06-05T11:13:00;29.00;1.00
14924;DHT22;7554;43.600;1.480;2023-06-05T11:15:42;29.00;1.00
14924;DHT22;7554;43.600;1.480;2023-06-05T11:18:27;29.30;1.00
14924;DHT22;7554;43.600;1.480;2023-06-05T11:20:55;29.30;1.00
14924;DHT22;7554;43.600;1.480;2023-06-05T11:23:22;28.90;1.00
14924;DHT22;7554;43.600;1.480;2023-06-05T11:25:55;29.20;1.00
14924;DHT22;7554;43.600;1.480;2023-06-05T11:28:41;29.70;1.00
14924;DHT22;7554;43.600;1.480;2023-06-05T11:31:11;29.30;1.00
14924;DHT22;7554;43.600;1.480;2023-06-05T11:33:39;29.40;1.00
14924;DHT22;7554;43.600;1.480;2023-06-05T11:36:07;28.90;1.00
14924;DHT22;7554;43.600;1.480;2023-06-05T11:38:34;28.90;1.00
14924;DHT22;7554;43.600;1.480;2023-06-05T11:41:06;28.90;1.00
14924;DHT22;7554;43.600;1.480;2023-06-05T11:43:41;29.20;1.00
14924;DHT22;7554;43.600;1.480;2023-06-05T11:46:11;29.10;1.00
14924;DHT22;7554;43.600;1.480;2023-06-05T11:48:45;29.70;1.00
14924;DHT22;7554;43.600;1.480;2023-06-05T11:51:12;30.10;1.00
14924;DHT22;7554;43.600;1.480;2023-06-05T11:53:45;29.10;1.00
14924;DHT22;7554;43.600;1.480;2023-06-05T11:56:15;29.30;1.00
14924;DHT22;7554;43.600;1.480;2023-06-05T11:58:44;29.70;1.00
14924;DHT22;7554;43.600;1.480;2023-06-05T12:01:15;29.90;1.00
14924;DHT22;7554;43.600;1.480;2023-06-05T12:03:47;30.40;1.00
14924;DHT22;7554;43.600;1.480;2023-06-05T12:06:16;30.60;1.00
14924;DHT22;7554;43.600;1.480;2023-06-05T12:08:43;30.60;1.00
14924;DHT22;7554;43.600;1.480;2023-06-05T12:11:22;30.70;1.00
14924;DHT22;7554;43.600;1.480;2023-06-05T12:13:51;29.80;1.00
14924;DHT22;7554;43.600;1.480;2023-06-05T12:16:29;30.10;1.00
14924;DHT22;7554;43.600;1.480;2023-06-05T12:18:57;30.60;1.00
14924;DHT22;7554;43.600;1.480;2023-06-05T12:21:26;30.90;1.00
14924;DHT22;7554;43.600;1.480;2023-06-05T12:24:01;30.80;1.00
14924;DHT22;7554;43.600;1.480;2023-06-05T12:26:29;30.70;1.00
14924;DHT22;7554;43.600;1.480;2023-06-05T12:29:04;30.50;1.00
14924;DHT22;7554;43.600;1.480;2023-06-05T12:31:35;30.30;1.00
14924;DHT22;7554;43.600;1.480;2023-06-05T12:34:05;29.00;1.00
14924;DHT22;7554;43.600;1.480;2023-06-05T12:36:38;28.70;1.00
14924;DHT22;7554;43.600;1.480;2023-06-05T12:39:10;28.50;1.00
14924;DHT22;7554;43.600;1.480;2023-06-05T12:41:38;28.80;1.00
14924;DHT22;7554;43.600;1.480;2023-06-05T12:44:07;28.30;1.00
14924;DHT22;7554;43.600;1.480;2023-06-05T12:46:37;28.60;1.00
14924;DHT22;7554;43.600;1.480;2023-06-05T12:49:04;28.70;1.00
14924;DHT22;7554;43.600;1.480;2023-06-05T12:51:32;28.90;1.00
14924;DHT22;7554;43.600;1.480;2023-06-05T12:53:59;28.70;1.00
14924;DHT22;7554;43.600;1.480;2023-06-05T12:56:27;28.70;1.00
14924;DHT22;7554;43.600;1.480;2023-06-05T12:58:55;28.90;1.00
14924;DHT22;7554;43.600;1.480;2023-06-05T13:01:25;29.00;1.00
14924;DHT22;7554;43.600;1.480;2023-06-05T13:03:54;29.00;1.00
14924;DHT22;7554;43.600;1.480;2023-06-05T13:06:21;28.70;1.00
14924;DHT22;7554;43.600;1.480;2023-06-05T13:08:48;28.60;1.00
14924;DHT22;7554;43.600;1.480;2023-06-05T13:11:17;28.20;1.00
14924;DHT22;7554;43.600;1.480;2023-06-05T13:13:44;27.80;1.00
14924;DHT22;7554;43.600;1.480;2023-06-05T13:16:12;28.30;1.00
14924;DHT22;7554;43.600;1.480;2023-06-05T13:18:39;28.70;1.00
14924;DHT22;7554;43.600;1.480;2023-06-05T13:21:08;28.90;1.00
14924;DHT22;7554;43.600;1.480;2023-06-05T13:23:35;28.80;1.00
14924;DHT22;7554;43.600;1.480;2023-06-05T13:26:03;28.50;1.00
14924;DHT22;7554;43.600;1.480;2023-06-05T13:28:30;28.40;1.00
14924;DHT22;7554;43.600;1.480;2023-06-05T13:30:57;28.70;1.00
14924;DHT22;7554;43.600;1.480;2023-06-05T13:33:27;28.90;1.00
14924;DHT22;7554;43.600;1.480;2023-06-05T13:35:55;29.20;1.00
14924;DHT22;7554;43.600;1.480;2023-06-05T13:38:24;29.00;1.00
14924;DHT22;7554;43.600;1.480;2023-06-05T13:40:52;29.20;1.00
14924;DHT22;7554;43.600;1.480;2023-06-05T13:43:20;29.40;1.00
14924;DHT22;7554;43.600;1.480;2023-06-05T13:45:48;29.30;1.00
14924;DHT22;7554;43.600;1.480;2023-06-05T13:48:16;29.00;1.00
14924;DHT22;7554;43.600;1.480;2023-06-05T13:50:43;29.20;1.00
14924;DHT22;7554;43.600;1.480;2023-06-05T13:53:11;29.10;1.00
14924;DHT22;7554;43.600;1.480;2023-06-05T13:55:40;28.90;1.00
14924;DHT22;7554;43.600;1.480;2023-06-05T13:58:07;29.40;1.00
14924;DHT22;7554;43.600;1.480;2023-06-05T14:00:35;29.10;1.00
14924;DHT22;7554;43.600;1.480;2023-06-05T14:03:03;29.30;1.00
14924;DHT22;7554;43.600;1.480;2023-06-05T14:05:30;29.70;1.00
14924;DHT22;7554;43.600;1.480;2023-06-05T14:07:58;29.70;1.00
14924;DHT22;7554;43.600;1.480;2023-06-05T14:10:26;30.20;1.00
14924;DHT22;7554;43.600;1.480;2023-06-05T14:12:55;29.90;1.00
14924;DHT22;7554;43.600;1.480;2023-06-05T14:15:22;30.00;1.00
14924;DHT22;7554;43.600;1.480;2023-06-05T14:17:51;30.20;1.00
14924;DHT22;7554;43.600;1.480;2023-06-05T14:20:19;30.70;1.00
14924;DHT22;7554;43.600;1.480;2023-06-05T14:22:47;30.10;1.00
14924;DHT22;7554;43.600;1.480;2023-06-05T14:25:14;29.90;1.00
14924;DHT22;7554;43.600;1.480;2023-06-05T14:27:41;29.50;1.00
14924;DHT22;7554;43.600;1.480;2023-06-05T14:30:11;29.20;1.00
14924;DHT22;7554;43.600;1.480;2023-06-05T14:32:38;28.70;1.00
14924;DHT22;7554;43.600;1.480;2023-06-05T14:35:06;28.90;1.00
14924;DHT22;7554;43.600;1.480;2023-06-05T14:37:34;29.20;1.00
14924;DHT22;7554;43.600;1.480;2023-06-05T14:40:01;29.30;1.00
14924;DHT22;7554;43.600;1.480;2023-06-05T14:42:29;29.40;1.00
14924;DHT22;7554;43.600;1.480;2023-06-05T14:44:57;29.30;1.00
14924;DHT22;7554;43.600;1.480;2023-06-05T14:47:26;29.40;1.00
14924;DHT22;7554;43.600;1.480;2023-06-05T14:49:53;29.20;1.00
14924;DHT22;7554;43.600;1.480;2023-06-05T14:52:20;28.60;1.00
14924;DHT22;7554;43.600;1.480;2023-06-05T14:54:47;28.80;1.00
14924;DHT22;7554;43.600;1.480;2023-06-05T14:57:15;29.20;1.00
14924;DHT22;7554;43.600;1.480;2023-06-05T14:59:44;29.30;1.00
14924;DHT22;7554;43.600;1.480;2023-06-05T15:02:11;29.40;1.00
14924;DHT22;7554;43.600;1.480;2023-06-05T15:04:40;29.30;1.00
14924;DHT22;7554;43.600;1.480;2023-06-05T15:07:07;29.60;1.00
14924;DHT22;7554;43.600;1.480;2023-06-05T15:09:34;29.70;1.00
14924;DHT22;7554;43.600;1.480;2023-06-05T15:12:02;29.80;1.00
14924;DHT22;7554;43.600;1.480;2023-06-05T15:14:31;29.90;1.00
14924;DHT22;7554;43.600;1.480;2023-06-05T15:16:58;29.60;1.00
14924;DHT22;7554;43.600;1.480;2023-06-05T15:19:26;29.90;1.00
14924;DHT22;7554;43.600;1.480;2023-06-05T15:21:55;30.10;1.00
14924;DHT22;7554;43.600;1.480;2023-06-05T15:24:22;29.90;1.00
14924;DHT22;7554;43.600;1.480;2023-06-05T15:26:49;29.80;1.00
14924;DHT22;7554;43.600;1.480;2023-06-05T15:29:17;29.60;1.00
14924;DHT22;7554;43.600;1.480;2023-06-05T15:31:45;29.40;1.00
14924;DHT22;7554;43.600;1.480;2023-06-05T15:34:12;29.50;1.00
14924;DHT22;7554;43.600;1.480;2023-06-05T15:36:39;29.30;1.00
14924;DHT22;7554;43.600;1.480;2023-06-05T15:39:08;29.30;1.00
14924;DHT22;7554;43.600;1.480;2023-06-05T15:41:36;29.20;1.00
14924;DHT22;7554;43.600;1.480;2023-06-05T15:44:03;29.10;1.00
14924;DHT22;7554;43.600;1.480;2023-06-05T15:46:30;29.10;1.00
14924;DHT22;7554;43.600;1.480;2023-06-05T15:48:57;28.90;1.00
14924;DHT22;7554;43.600;1.480;2023-06-05T15:51:25;28.70;1.00
14924;DHT22;7554;43.600;1.480;2023-06-05T15:53:54;28.70;1.00
14924;DHT22;7554;43.600;1.480;2023-06-05T15:56:24;28.70;1.00
14924;DHT22;7554;43.600;1.480;2023-06-05T15:58:52;28.90;1.00
14924;DHT22;7554;43.600;1.480;2023-06-05T16:01:19;28.70;1.00
14924;DHT22;7554;43.600;1.480;2023-06-05T16:03:49;28.70;1.00
14924;DHT22;7554;43.600;1.480;2023-06-05T16:06:17;28.50;1.00
14924;DHT22;7554;43.600;1.480;2023-06-05T16:08:44;28.20;1.00
14924;DHT22;7554;43.600;1.480;2023-06-05T16:11:12;28.50;1.00
14924;DHT22;7554;43.600;1.480;2023-06-05T16:13:41;28.30;1.00
14924;DHT22;7554;43.600;1.480;2023-06-05T16:16:08;28.20;1.00